createdAt,value
2022-07-28T00:03:35.354Z,17.50
2022-07-28T00:13:40.718Z,17.30
2022-07-28T00:18:42.551Z,17.20
2022-07-28T00:23:44.271Z,17.10
2022-07-28T00:28:46.025Z,16.80
2022-07-28T00:33:48.102Z,16.60
2022-07-28T00:38:49.837Z,17.00
2022-07-28T00:43:53.794Z,16.80
2022-07-28T00:48:55.830Z,16.80
2022-07-28T00:53:58.283Z,16.50
2022-07-28T00:59:00.202Z,16.50
2022-07-28T01:04:03.103Z,16.40
2022-07-28T01:09:07.889Z,16.50
2022-07-28T01:14:47.679Z,16.70
2022-07-28T01:20:11.700Z,16.60
2022-07-28T01:25:54.799Z,16.50
2022-07-28T01:31:05.333Z,15.70
2022-07-28T01:36:11.183Z,16.20
2022-07-28T01:56:53.304Z,15.90
2022-07-28T02:01:55.991Z,15.90
2022-07-28T02:06:59.040Z,16.40
2022-07-28T02:12:02.803Z,16.00
2022-07-28T02:17:11.016Z,15.90
2022-07-28T02:22:13.916Z,15.30
2022-07-28T02:27:33.082Z,15.70
2022-07-28T02:32:52.394Z,15.80
2022-07-28T02:38:00.716Z,15.70
2022-07-28T02:43:04.436Z,16.80
2022-07-28T02:48:10.842Z,15.80
2022-07-28T02:53:16.299Z,15.30
2022-07-28T02:58:25.087Z,15.50
2022-07-28T03:03:27.738Z,15.60
2022-07-28T03:08:29.740Z,15.20
2022-07-28T03:13:32.095Z,15.10
2022-07-28T03:18:34.348Z,15.20
2022-07-28T03:23:42.533Z,15.40
2022-07-28T03:28:46.262Z,15.20
2022-07-28T03:33:48.823Z,15.40
2022-07-28T03:38:57.893Z,15.60
2022-07-28T03:44:01.998Z,15.40
2022-07-28T03:49:08.254Z,15.60
2022-07-28T03:54:10.366Z,15.80
2022-07-28T03:59:12.248Z,15.40
2022-07-28T04:04:14.655Z,15.60
2022-07-28T04:09:17.814Z,15.40
2022-07-28T04:19:22.259Z,15.50
2022-07-28T04:24:24.040Z,15.40
2022-07-28T04:29:27.318Z,15.60
2022-07-28T04:34:29.412Z,15.60
2022-07-28T04:39:31.221Z,15.70
2022-07-28T04:44:33.680Z,15.80
2022-07-28T04:49:35.466Z,15.70
2022-07-28T04:54:38.142Z,15.70
2022-07-28T04:59:40.125Z,15.80
2022-07-28T05:04:41.976Z,15.70
2022-07-28T05:09:43.953Z,15.80
2022-07-28T05:14:45.721Z,15.80
2022-07-28T05:29:52.775Z,16.30
2022-07-28T05:34:54.567Z,16.30
2022-07-28T05:39:56.320Z,16.50
2022-07-28T05:44:58.035Z,16.60
2022-07-28T05:50:01.221Z,16.90
2022-07-28T05:55:03.371Z,17.20
2022-07-28T06:00:08.169Z,17.30
2022-07-28T06:05:10.216Z,17.40
2022-07-28T06:10:17.169Z,17.50
2022-07-28T06:15:21.673Z,17.60
2022-07-28T06:20:24.713Z,17.80
2022-07-28T06:25:31.525Z,17.80
2022-07-28T06:30:33.407Z,17.80
2022-07-28T06:35:48.234Z,18.00
2022-07-28T06:40:53.315Z,18.20
2022-07-28T06:45:55.051Z,18.40
2022-07-28T06:50:59.460Z,18.60
2022-07-28T06:56:01.273Z,19.00
2022-07-28T07:01:07.641Z,19.00
2022-07-28T07:06:10.932Z,19.30
2022-07-28T07:11:13.099Z,20.60
2022-07-28T07:16:15.026Z,19.60
2022-07-28T07:26:19.104Z,20.00
2022-07-28T07:31:20.928Z,20.30
2022-07-28T07:36:23.073Z,20.20
2022-07-28T07:41:25.233Z,20.60
2022-07-28T07:46:27.090Z,20.60
2022-07-28T07:51:28.895Z,21.00
2022-07-28T07:56:30.604Z,21.00
2022-07-28T08:01:32.549Z,21.40
2022-07-28T08:06:34.609Z,21.40
2022-07-28T08:11:37.640Z,21.50
2022-07-28T08:16:39.497Z,21.80
2022-07-28T08:21:41.312Z,22.00
2022-07-28T08:26:43.035Z,22.10
2022-07-28T08:31:44.833Z,22.10
2022-07-28T08:36:46.599Z,22.30
2022-07-28T08:42:07.792Z,22.60
2022-07-28T08:47:11.954Z,22.60
2022-07-28T08:52:14.614Z,22.40
2022-07-28T08:57:27.844Z,22.80
2022-07-28T09:02:31.714Z,22.70
2022-07-28T09:07:34.826Z,23.10
2022-07-28T09:12:36.939Z,23.10
2022-07-28T09:17:39.240Z,23.40
2022-07-28T09:23:04.891Z,23.60
2022-07-28T09:28:26.691Z,23.80
2022-07-28T09:33:40.943Z,23.60
2022-07-28T09:38:45.356Z,23.50
2022-07-28T09:43:52.535Z,23.80
2022-07-28T09:49:00.664Z,24.00
2022-07-28T09:54:14.424Z,23.70
2022-07-28T09:59:18.915Z,23.60
2022-07-28T10:04:33.006Z,23.50
2022-07-28T10:09:35.086Z,24.90
2022-07-28T10:14:36.805Z,24.00
2022-07-28T10:19:40.476Z,24.30
2022-07-28T10:24:42.389Z,24.30
2022-07-28T10:29:44.833Z,23.90
2022-07-28T10:34:51.300Z,24.20
2022-07-28T10:40:10.372Z,24.20
2022-07-28T10:45:13.635Z,24.50
2022-07-28T10:50:16.365Z,23.90
2022-07-28T10:55:33.750Z,23.80
2022-07-28T11:00:55.440Z,24.80
2022-07-28T11:05:58.245Z,24.70
2022-07-28T11:11:09.512Z,24.90
2022-07-28T11:16:14.612Z,24.20
2022-07-28T11:21:16.728Z,24.30
2022-07-28T11:26:21.398Z,24.50
2022-07-28T11:31:44.808Z,24.80
2022-07-28T11:36:58.919Z,24.50
2022-07-28T11:42:20.240Z,24.40
2022-07-28T11:47:24.742Z,24.30
2022-07-28T11:52:26.644Z,24.70
2022-07-28T11:57:29.363Z,24.70
2022-07-28T12:02:32.861Z,24.50
2022-07-28T12:07:40.741Z,24.50
2022-07-28T12:12:50.471Z,25.00
2022-07-28T12:17:52.681Z,24.90
2022-07-28T12:23:06.384Z,23.80
2022-07-28T12:28:25.569Z,24.00
2022-07-28T12:33:29.899Z,23.70
2022-07-28T12:38:32.041Z,23.40
2022-07-28T12:43:34.295Z,23.80
2022-07-28T12:48:41.216Z,23.90
2022-07-28T12:53:52.339Z,23.50
2022-07-28T12:59:11.123Z,23.30
2022-07-28T13:04:13.314Z,23.90
2022-07-28T13:09:32.613Z,23.60
2022-07-28T13:14:47.218Z,24.10
2022-07-28T13:19:50.205Z,23.90
2022-07-28T13:24:51.982Z,23.50
2022-07-28T13:29:54.648Z,23.40
2022-07-28T13:34:56.995Z,23.10
2022-07-28T13:40:00.792Z,22.90
2022-07-28T13:45:02.619Z,23.30
2022-07-28T13:50:09.916Z,23.50
2022-07-28T13:55:13.130Z,23.80
2022-07-28T14:00:22.641Z,23.90
2022-07-28T14:05:24.678Z,23.30
2022-07-28T14:10:35.800Z,23.50
2022-07-28T14:15:37.958Z,23.20
2022-07-28T14:20:40.278Z,23.30
2022-07-28T14:25:49.058Z,23.40
2022-07-28T14:30:52.212Z,23.40
2022-07-28T14:35:54.411Z,23.20
2022-07-28T14:40:57.028Z,23.30
2022-07-28T14:46:13.629Z,23.30
2022-07-28T14:51:16.807Z,23.70
2022-07-28T14:56:18.536Z,24.20
2022-07-28T15:01:23.141Z,23.90
2022-07-28T15:06:26.077Z,25.10
2022-07-28T15:11:27.805Z,25.50
2022-07-28T15:16:29.804Z,25.50
2022-07-28T15:21:36.195Z,25.60
2022-07-28T15:26:38.296Z,25.50
2022-07-28T15:31:41.991Z,25.20
2022-07-28T15:36:44.115Z,24.90
2022-07-28T15:41:46.849Z,24.70
2022-07-28T15:46:48.756Z,24.70
2022-07-28T15:51:51.449Z,24.00
2022-07-28T15:56:53.905Z,24.00
2022-07-28T16:01:55.790Z,23.60
2022-07-28T16:07:19.048Z,23.70
2022-07-28T16:12:25.494Z,23.60
2022-07-28T16:17:27.603Z,24.30
2022-07-28T16:22:29.531Z,23.40
2022-07-28T16:27:31.381Z,23.50
2022-07-28T16:32:33.457Z,23.10
2022-07-28T16:37:36.078Z,23.80
2022-07-28T16:42:38.025Z,23.50
2022-07-28T16:47:39.853Z,24.20
2022-07-28T16:52:41.759Z,23.80
2022-07-28T16:57:43.490Z,23.00
2022-07-28T17:02:46.963Z,22.80
2022-07-28T17:07:48.748Z,22.80
2022-07-28T17:12:50.563Z,22.80
2022-07-28T17:17:53.106Z,22.90
2022-07-28T17:22:54.897Z,23.30
2022-07-28T17:27:56.642Z,23.40
2022-07-28T17:33:08.089Z,23.00
2022-07-28T17:38:12.557Z,22.90
2022-07-28T17:43:16.060Z,23.40
2022-07-28T17:48:18.276Z,23.20
2022-07-28T17:53:23.598Z,23.10
2022-07-28T17:58:29.285Z,23.00
2022-07-28T18:03:31.667Z,22.90
2022-07-28T18:14:04.794Z,23.00
2022-07-28T18:19:07.102Z,23.10
2022-07-28T18:24:08.843Z,22.70
2022-07-28T18:29:10.575Z,22.70
2022-07-28T18:34:12.627Z,22.50
2022-07-28T18:39:14.722Z,22.50
2022-07-28T18:44:17.838Z,22.60
2022-07-28T18:49:21.500Z,22.70
2022-07-28T18:54:27.538Z,22.80
2022-07-28T18:59:29.538Z,22.70
2022-07-28T19:04:31.332Z,22.70
2022-07-28T19:09:36.982Z,22.70
2022-07-28T19:14:40.907Z,22.80
2022-07-28T19:19:43.288Z,22.60
2022-07-28T19:24:45.014Z,22.80
2022-07-28T19:29:46.974Z,22.90
2022-07-28T19:34:48.734Z,22.80
2022-07-28T19:39:53.179Z,22.70
2022-07-28T19:44:56.170Z,22.60
2022-07-28T19:49:58.066Z,22.60
2022-07-28T19:54:59.752Z,22.40
2022-07-28T20:00:02.301Z,22.50
2022-07-28T20:05:05.136Z,22.30
2022-07-28T20:10:07.441Z,22.40
2022-07-28T20:15:09.624Z,22.30
2022-07-28T20:20:13.155Z,22.10
2022-07-28T20:25:15.493Z,22.20
2022-07-28T20:30:17.261Z,22.20
2022-07-28T20:35:18.979Z,22.10
2022-07-28T20:40:20.829Z,22.10
2022-07-28T20:45:22.699Z,22.20
2022-07-28T20:50:25.065Z,22.10
2022-07-28T20:55:27.884Z,22.00
2022-07-28T21:00:29.558Z,21.90
2022-07-28T21:05:35.417Z,21.80
2022-07-28T21:10:38.688Z,21.70
2022-07-28T21:15:40.440Z,21.70
2022-07-28T21:20:42.379Z,21.60
2022-07-28T21:25:45.531Z,21.60
2022-07-28T21:30:47.274Z,21.40
2022-07-28T21:35:49.181Z,21.00
2022-07-28T21:40:50.960Z,20.40
2022-07-28T21:45:52.738Z,20.70
2022-07-28T21:50:54.620Z,20.40
2022-07-28T21:55:57.088Z,20.20
2022-07-28T22:01:02.630Z,19.80
2022-07-28T22:06:05.733Z,20.20
2022-07-28T22:11:07.848Z,20.50
2022-07-28T22:16:09.645Z,20.80
2022-07-28T22:21:11.467Z,20.90
2022-07-28T22:26:13.149Z,20.20
2022-07-28T22:31:15.039Z,19.60
2022-07-28T22:36:16.811Z,19.80
2022-07-28T22:41:18.571Z,19.60
2022-07-28T22:46:20.356Z,19.60
2022-07-28T22:51:22.086Z,19.80
2022-07-28T22:56:23.837Z,19.90
2022-07-28T23:01:25.713Z,19.70
2022-07-28T23:06:28.713Z,19.60
2022-07-28T23:11:30.410Z,19.60
2022-07-28T23:16:32.202Z,19.50
2022-07-28T23:21:39.880Z,18.90
2022-07-28T23:26:41.683Z,18.90
2022-07-28T23:31:43.430Z,19.00
2022-07-28T23:36:47.437Z,18.90
2022-07-28T23:41:49.151Z,18.80
2022-07-28T23:46:50.941Z,21.60
2022-07-28T23:51:52.799Z,18.40
2022-07-28T23:56:56.565Z,18.40
